sensor_id;sensor_type;location;lat;lon;timestamp;P1;durP1;ratioP1;P2;durP2;ratioP2
51836;SDS011;38941;53.254;6.600;2023-07-31T00:00:38;7.07;;;2.40;;
51836;SDS011;38941;53.254;6.600;2023-07-31T00:02:39;3.08;;;2.35;;
51836;SDS011;38941;53.254;6.600;2023-07-31T00:04:39;8.45;;;3.88;;
51836;SDS011;38941;53.254;6.600;2023-07-31T00:06:40;6.15;;;2.83;;
51836;SDS011;38941;53.254;6.600;2023-07-31T00:08:41;5.95;;;2.80;;
51836;SDS011;38941;53.254;6.600;2023-07-31T00:10:42;3.33;;;2.40;;
51836;SDS011;38941;53.254;6.600;2023-07-31T00:12:43;4.28;;;2.42;;
51836;SDS011;38941;53.254;6.600;2023-07-31T00:14:45;6.70;;;2.75;;
51836;SDS011;38941;53.254;6.600;2023-07-31T00:16:46;6.03;;;2.63;;
51836;SDS011;38941;53.254;6.600;2023-07-31T00:18:47;5.97;;;3.22;;
51836;SDS011;38941;53.254;6.600;2023-07-31T00:20:48;4.25;;;2.67;;
51836;SDS011;38941;53.254;6.600;2023-07-31T00:22:49;4.25;;;2.60;;
51836;SDS011;38941;53.254;6.600;2023-07-31T00:24:49;6.13;;;2.85;;
51836;SDS011;38941;53.254;6.600;2023-07-31T00:26:50;4.10;;;2.40;;
51836;SDS011;38941;53.254;6.600;2023-07-31T00:28:51;4.93;;;3.00;;
51836;SDS011;38941;53.254;6.600;2023-07-31T00:30:51;3.33;;;2.35;;
51836;SDS011;38941;53.254;6.600;2023-07-31T00:32:52;5.40;;;2.45;;
51836;SDS011;38941;53.254;6.600;2023-07-31T00:34:53;4.15;;;2.40;;
51836;SDS011;38941;53.254;6.600;2023-07-31T00:36:53;2.67;;;1.90;;
51836;SDS011;38941;53.254;6.600;2023-07-31T00:38:54;2.92;;;1.77;;
51836;SDS011;38941;53.254;6.600;2023-07-31T00:40:55;3.00;;;1.83;;
51836;SDS011;38941;53.254;6.600;2023-07-31T00:42:55;4.05;;;1.90;;
51836;SDS011;38941;53.254;6.600;2023-07-31T00:44:56;6.10;;;1.90;;
51836;SDS011;38941;53.254;6.600;2023-07-31T00:46:57;3.17;;;1.90;;
51836;SDS011;38941;53.254;6.600;2023-07-31T00:48:59;2.78;;;1.95;;
51836;SDS011;38941;53.254;6.600;2023-07-31T00:51:00;13.88;;;2.50;;
51836;SDS011;38941;53.254;6.600;2023-07-31T00:53:01;6.45;;;1.63;;
51836;SDS011;38941;53.254;6.600;2023-07-31T00:55:02;3.50;;;1.65;;
51836;SDS011;38941;53.254;6.600;2023-07-31T00:57:04;3.13;;;1.55;;
51836;SDS011;38941;53.254;6.600;2023-07-31T00:59:05;5.28;;;1.88;;
51836;SDS011;38941;53.254;6.600;2023-07-31T01:01:05;3.45;;;2.03;;
51836;SDS011;38941;53.254;6.600;2023-07-31T01:03:06;2.78;;;1.65;;
51836;SDS011;38941;53.254;6.600;2023-07-31T01:05:07;2.72;;;1.90;;
51836;SDS011;38941;53.254;6.600;2023-07-31T01:07:13;3.50;;;1.65;;
51836;SDS011;38941;53.254;6.600;2023-07-31T01:11:37;3.00;;;1.88;;
51836;SDS011;38941;53.254;6.600;2023-07-31T01:13:45;1.98;;;1.60;;
51836;SDS011;38941;53.254;6.600;2023-07-31T01:15:47;2.88;;;1.70;;
51836;SDS011;38941;53.254;6.600;2023-07-31T01:17:47;2.08;;;1.60;;
51836;SDS011;38941;53.254;6.600;2023-07-31T01:19:48;3.13;;;1.85;;
51836;SDS011;38941;53.254;6.600;2023-07-31T01:24:23;3.03;;;1.73;;
51836;SDS011;38941;53.254;6.600;2023-07-31T01:26:33;1.58;;;1.35;;
51836;SDS011;38941;53.254;6.600;2023-07-31T01:30:56;2.58;;;1.38;;
51836;SDS011;38941;53.254;6.600;2023-07-31T01:33:00;2.97;;;1.30;;
51836;SDS011;38941;53.254;6.600;2023-07-31T01:35:06;2.58;;;1.30;;
51836;SDS011;38941;53.254;6.600;2023-07-31T01:37:08;4.70;;;1.17;;
51836;SDS011;38941;53.254;6.600;2023-07-31T01:39:08;1.73;;;1.20;;
51836;SDS011;38941;53.254;6.600;2023-07-31T01:41:09;2.50;;;1.63;;
51836;SDS011;38941;53.254;6.600;2023-07-31T01:43:10;2.08;;;1.60;;
51836;SDS011;38941;53.254;6.600;2023-07-31T01:45:11;2.40;;;1.67;;
51836;SDS011;38941;53.254;6.600;2023-07-31T01:47:12;2.78;;;1.75;;
51836;SDS011;38941;53.254;6.600;2023-07-31T01:49:12;2.58;;;1.70;;
51836;SDS011;38941;53.254;6.600;2023-07-31T01:51:13;2.90;;;1.58;;
51836;SDS011;38941;53.254;6.600;2023-07-31T01:53:13;3.47;;;2.22;;
51836;SDS011;38941;53.254;6.600;2023-07-31T01:55:14;6.38;;;1.90;;
51836;SDS011;38941;53.254;6.600;2023-07-31T01:57:15;2.17;;;1.70;;
51836;SDS011;38941;53.254;6.600;2023-07-31T01:59:16;3.78;;;1.88;;
51836;SDS011;38941;53.254;6.600;2023-07-31T02:01:16;4.28;;;1.63;;
51836;SDS011;38941;53.254;6.600;2023-07-31T02:03:17;3.15;;;1.80;;
51836;SDS011;38941;53.254;6.600;2023-07-31T02:05:19;4.50;;;1.92;;
51836;SDS011;38941;53.254;6.600;2023-07-31T02:07:19;3.30;;;2.17;;
51836;SDS011;38941;53.254;6.600;2023-07-31T02:09:20;2.63;;;1.75;;
51836;SDS011;38941;53.254;6.600;2023-07-31T02:11:21;1.92;;;1.60;;
51836;SDS011;38941;53.254;6.600;2023-07-31T02:13:21;2.90;;;1.73;;
51836;SDS011;38941;53.254;6.600;2023-07-31T02:15:22;3.00;;;1.50;;
51836;SDS011;38941;53.254;6.600;2023-07-31T02:17:22;3.50;;;1.48;;
51836;SDS011;38941;53.254;6.600;2023-07-31T02:19:23;3.15;;;2.03;;
51836;SDS011;38941;53.254;6.600;2023-07-31T02:21:24;2.40;;;1.40;;
51836;SDS011;38941;53.254;6.600;2023-07-31T02:23:24;2.28;;;1.42;;
51836;SDS011;38941;53.254;6.600;2023-07-31T02:25:25;3.15;;;1.33;;
51836;SDS011;38941;53.254;6.600;2023-07-31T02:27:26;2.00;;;1.27;;
51836;SDS011;38941;53.254;6.600;2023-07-31T02:29:27;2.25;;;1.33;;
51836;SDS011;38941;53.254;6.600;2023-07-31T02:31:28;6.60;;;1.30;;
51836;SDS011;38941;53.254;6.600;2023-07-31T02:33:28;3.28;;;1.50;;
51836;SDS011;38941;53.254;6.600;2023-07-31T02:35:29;2.15;;;1.33;;
51836;SDS011;38941;53.254;6.600;2023-07-31T02:37:30;2.50;;;1.48;;
51836;SDS011;38941;53.254;6.600;2023-07-31T02:39:31;2.70;;;1.27;;
51836;SDS011;38941;53.254;6.600;2023-07-31T02:41:31;2.15;;;1.58;;
51836;SDS011;38941;53.254;6.600;2023-07-31T02:43:32;5.05;;;1.52;;
51836;SDS011;38941;53.254;6.600;2023-07-31T02:45:33;2.25;;;1.02;;
51836;SDS011;38941;53.254;6.600;2023-07-31T02:47:33;1.10;;;1.00;;
51836;SDS011;38941;53.254;6.600;2023-07-31T02:49:34;1.48;;;1.08;;
51836;SDS011;38941;53.254;6.600;2023-07-31T02:51:35;1.58;;;1.10;;
51836;SDS011;38941;53.254;6.600;2023-07-31T02:53:35;1.67;;;1.20;;
51836;SDS011;38941;53.254;6.600;2023-07-31T02:55:36;1.38;;;1.00;;
51836;SDS011;38941;53.254;6.600;2023-07-31T02:57:36;3.22;;;1.27;;
51836;SDS011;38941;53.254;6.600;2023-07-31T02:59:37;2.45;;;1.00;;
51836;SDS011;38941;53.254;6.600;2023-07-31T03:01:38;1.70;;;1.15;;
51836;SDS011;38941;53.254;6.600;2023-07-31T03:03:39;1.35;;;1.10;;
51836;SDS011;38941;53.254;6.600;2023-07-31T03:05:41;2.42;;;1.10;;
51836;SDS011;38941;53.254;6.600;2023-07-31T03:07:41;4.22;;;1.08;;
51836;SDS011;38941;53.254;6.600;2023-07-31T03:09:42;4.78;;;1.00;;
51836;SDS011;38941;53.254;6.600;2023-07-31T03:11:43;2.20;;;1.55;;
51836;SDS011;38941;53.254;6.600;2023-07-31T03:13:43;1.75;;;1.05;;
51836;SDS011;38941;53.254;6.600;2023-07-31T03:15:44;2.28;;;0.75;;
51836;SDS011;38941;53.254;6.600;2023-07-31T03:17:45;2.95;;;1.05;;
51836;SDS011;38941;53.254;6.600;2023-07-31T03:19:46;3.67;;;1.25;;
51836;SDS011;38941;53.254;6.600;2023-07-31T03:21:46;2.53;;;0.88;;
51836;SDS011;38941;53.254;6.600;2023-07-31T03:23:47;2.35;;;1.10;;
51836;SDS011;38941;53.254;6.600;2023-07-31T03:25:57;1.55;;;0.90;;
51836;SDS011;38941;53.254;6.600;2023-07-31T03:27:59;1.90;;;1.20;;
51836;SDS011;38941;53.254;6.600;2023-07-31T03:30:00;1.70;;;0.90;;
51836;SDS011;38941;53.254;6.600;2023-07-31T03:32:01;1.98;;;0.88;;
51836;SDS011;38941;53.254;6.600;2023-07-31T03:34:01;1.75;;;1.08;;
51836;SDS011;38941;53.254;6.600;2023-07-31T03:36:02;3.83;;;1.75;;
51836;SDS011;38941;53.254;6.600;2023-07-31T03:38:03;1.98;;;1.00;;
51836;SDS011;38941;53.254;6.600;2023-07-31T03:40:04;1.08;;;0.80;;
51836;SDS011;38941;53.254;6.600;2023-07-31T03:42:05;1.05;;;0.80;;
51836;SDS011;38941;53.254;6.600;2023-07-31T03:44:06;2.80;;;0.75;;
51836;SDS011;38941;53.254;6.600;2023-07-31T03:46:07;4.50;;;0.90;;
51836;SDS011;38941;53.254;6.600;2023-07-31T03:48:08;1.95;;;0.82;;
51836;SDS011;38941;53.254;6.600;2023-07-31T03:50:09;0.73;;;0.57;;
51836;SDS011;38941;53.254;6.600;2023-07-31T03:52:09;3.30;;;0.77;;
51836;SDS011;38941;53.254;6.600;2023-07-31T03:54:10;2.33;;;0.90;;
51836;SDS011;38941;53.254;6.600;2023-07-31T03:56:11;2.47;;;0.82;;
51836;SDS011;38941;53.254;6.600;2023-07-31T03:58:12;1.23;;;0.70;;
51836;SDS011;38941;53.254;6.600;2023-07-31T04:00:12;2.05;;;0.80;;
51836;SDS011;38941;53.254;6.600;2023-07-31T04:02:13;1.63;;;0.77;;
51836;SDS011;38941;53.254;6.600;2023-07-31T04:04:14;3.03;;;0.60;;
51836;SDS011;38941;53.254;6.600;2023-07-31T04:06:15;2.67;;;0.80;;
51836;SDS011;38941;53.254;6.600;2023-07-31T04:08:18;1.42;;;0.70;;
51836;SDS011;38941;53.254;6.600;2023-07-31T04:10:18;1.88;;;0.60;;
51836;SDS011;38941;53.254;6.600;2023-07-31T04:12:19;2.03;;;0.63;;
51836;SDS011;38941;53.254;6.600;2023-07-31T04:14:20;2.45;;;0.63;;
51836;SDS011;38941;53.254;6.600;2023-07-31T04:16:20;1.15;;;0.55;;
51836;SDS011;38941;53.254;6.600;2023-07-31T04:18:21;2.85;;;0.60;;
51836;SDS011;38941;53.254;6.600;2023-07-31T04:20:24;4.18;;;1.02;;
51836;SDS011;38941;53.254;6.600;2023-07-31T04:22:25;1.52;;;0.77;;
51836;SDS011;38941;53.254;6.600;2023-07-31T04:24:26;1.88;;;0.80;;
51836;SDS011;38941;53.254;6.600;2023-07-31T04:26:26;1.02;;;0.60;;
51836;SDS011;38941;53.254;6.600;2023-07-31T04:28:27;1.25;;;0.80;;
51836;SDS011;38941;53.254;6.600;2023-07-31T04:30:28;1.95;;;0.68;;
51836;SDS011;38941;53.254;6.600;2023-07-31T04:32:28;2.13;;;0.55;;
51836;SDS011;38941;53.254;6.600;2023-07-31T04:34:29;1.55;;;0.52;;
51836;SDS011;38941;53.254;6.600;2023-07-31T04:36:30;1.88;;;0.60;;
51836;SDS011;38941;53.254;6.600;2023-07-31T04:38:31;4.97;;;0.80;;
51836;SDS011;38941;53.254;6.600;2023-07-31T04:40:31;1.42;;;0.70;;
51836;SDS011;38941;53.254;6.600;2023-07-31T04:42:32;0.75;;;0.52;;
51836;SDS011;38941;53.254;6.600;2023-07-31T04:44:35;2.78;;;0.60;;
51836;SDS011;38941;53.254;6.600;2023-07-31T04:46:35;1.42;;;0.60;;
51836;SDS011;38941;53.254;6.600;2023-07-31T04:48:37;1.33;;;0.88;;
51836;SDS011;38941;53.254;6.600;2023-07-31T04:50:38;0.85;;;0.50;;
51836;SDS011;38941;53.254;6.600;2023-07-31T04:52:38;0.70;;;0.40;;
51836;SDS011;38941;53.254;6.600;2023-07-31T04:54:39;1.70;;;0.60;;
51836;SDS011;38941;53.254;6.600;2023-07-31T04:56:40;1.40;;;0.40;;
51836;SDS011;38941;53.254;6.600;2023-07-31T04:58:42;1.92;;;0.73;;
51836;SDS011;38941;53.254;6.600;2023-07-31T05:00:43;2.83;;;0.60;;
51836;SDS011;38941;53.254;6.600;2023-07-31T05:02:43;1.95;;;0.50;;
51836;SDS011;38941;53.254;6.600;2023-07-31T05:04:44;2.85;;;0.50;;
51836;SDS011;38941;53.254;6.600;2023-07-31T05:06:45;1.83;;;0.40;;
51836;SDS011;38941;53.254;6.600;2023-07-31T05:08:45;1.63;;;0.30;;
51836;SDS011;38941;53.254;6.600;2023-07-31T05:10:46;2.28;;;0.50;;
51836;SDS011;38941;53.254;6.600;2023-07-31T05:12:47;1.80;;;0.35;;
51836;SDS011;38941;53.254;6.600;2023-07-31T05:14:48;3.03;;;0.60;;
51836;SDS011;38941;53.254;6.600;2023-07-31T05:16:48;1.45;;;0.63;;
51836;SDS011;38941;53.254;6.600;2023-07-31T05:18:50;1.25;;;0.55;;
51836;SDS011;38941;53.254;6.600;2023-07-31T05:20:51;0.63;;;0.30;;
51836;SDS011;38941;53.254;6.600;2023-07-31T05:22:51;0.88;;;0.40;;
51836;SDS011;38941;53.254;6.600;2023-07-31T05:24:52;2.65;;;0.50;;
51836;SDS011;38941;53.254;6.600;2023-07-31T05:26:54;1.05;;;0.50;;
51836;SDS011;38941;53.254;6.600;2023-07-31T05:28:54;1.13;;;0.60;;
51836;SDS011;38941;53.254;6.600;2023-07-31T05:31:02;4.18;;;0.47;;
51836;SDS011;38941;53.254;6.600;2023-07-31T05:33:04;0.30;;;0.28;;
51836;SDS011;38941;53.254;6.600;2023-07-31T05:35:04;1.48;;;0.40;;
51836;SDS011;38941;53.254;6.600;2023-07-31T05:37:05;1.02;;;0.50;;
51836;SDS011;38941;53.254;6.600;2023-07-31T05:39:06;0.82;;;0.30;;
51836;SDS011;38941;53.254;6.600;2023-07-31T05:41:08;0.65;;;0.40;;
51836;SDS011;38941;53.254;6.600;2023-07-31T05:43:09;0.52;;;0.40;;
51836;SDS011;38941;53.254;6.600;2023-07-31T05:45:10;0.75;;;0.40;;
51836;SDS011;38941;53.254;6.600;2023-07-31T05:47:10;0.20;;;0.20;;
51836;SDS011;38941;53.254;6.600;2023-07-31T05:49:11;0.60;;;0.60;;
51836;SDS011;38941;53.254;6.600;2023-07-31T05:51:12;0.30;;;0.15;;
51836;SDS011;38941;53.254;6.600;2023-07-31T05:53:12;1.38;;;0.40;;
51836;SDS011;38941;53.254;6.600;2023-07-31T05:55:13;0.17;;;0.17;;
51836;SDS011;38941;53.254;6.600;2023-07-31T05:57:14;0.63;;;0.30;;
51836;SDS011;38941;53.254;6.600;2023-07-31T05:59:15;0.73;;;0.22;;
51836;SDS011;38941;53.254;6.600;2023-07-31T06:01:16;0.75;;;0.35;;
51836;SDS011;38941;53.254;6.600;2023-07-31T06:03:17;0.50;;;0.20;;
51836;SDS011;38941;53.254;6.600;2023-07-31T06:05:18;0.70;;;0.50;;
51836;SDS011;38941;53.254;6.600;2023-07-31T06:07:19;0.63;;;0.28;;
51836;SDS011;38941;53.254;6.600;2023-07-31T06:09:19;0.50;;;0.32;;
51836;SDS011;38941;53.254;6.600;2023-07-31T06:11:20;0.73;;;0.50;;
51836;SDS011;38941;53.254;6.600;2023-07-31T06:13:21;0.75;;;0.45;;
51836;SDS011;38941;53.254;6.600;2023-07-31T06:15:22;2.08;;;0.60;;
51836;SDS011;38941;53.254;6.600;2023-07-31T06:17:22;2.10;;;0.50;;
51836;SDS011;38941;53.254;6.600;2023-07-31T06:19:23;1.40;;;0.60;;
51836;SDS011;38941;53.254;6.600;2023-07-31T06:21:24;1.25;;;0.60;;
51836;SDS011;38941;53.254;6.600;2023-07-31T06:23:25;1.85;;;0.70;;
51836;SDS011;38941;53.254;6.600;2023-07-31T06:25:25;1.63;;;0.50;;
51836;SDS011;38941;53.254;6.600;2023-07-31T06:27:26;1.23;;;0.82;;
51836;SDS011;38941;53.254;6.600;2023-07-31T06:29:27;2.58;;;0.90;;
51836;SDS011;38941;53.254;6.600;2023-07-31T06:31:28;2.03;;;0.80;;
51836;SDS011;38941;53.254;6.600;2023-07-31T06:33:28;3.72;;;1.00;;
51836;SDS011;38941;53.254;6.600;2023-07-31T06:35:29;1.58;;;1.00;;
51836;SDS011;38941;53.254;6.600;2023-07-31T06:37:30;2.60;;;1.13;;
51836;SDS011;38941;53.254;6.600;2023-07-31T06:39:30;2.58;;;0.98;;
51836;SDS011;38941;53.254;6.600;2023-07-31T06:41:31;4.80;;;1.80;;
51836;SDS011;38941;53.254;6.600;2023-07-31T06:43:32;8.15;;;2.03;;
51836;SDS011;38941;53.254;6.600;2023-07-31T06:45:32;6.50;;;2.13;;
51836;SDS011;38941;53.254;6.600;2023-07-31T06:47:35;8.00;;;2.20;;
51836;SDS011;38941;53.254;6.600;2023-07-31T06:49:36;10.02;;;2.22;;
51836;SDS011;38941;53.254;6.600;2023-07-31T06:51:37;5.20;;;3.03;;
51836;SDS011;38941;53.254;6.600;2023-07-31T06:53:38;10.73;;;2.40;;
51836;SDS011;38941;53.254;6.600;2023-07-31T06:55:39;8.98;;;2.40;;
51836;SDS011;38941;53.254;6.600;2023-07-31T06:57:39;12.13;;;2.90;;
51836;SDS011;38941;53.254;6.600;2023-07-31T06:59:40;14.25;;;3.20;;
51836;SDS011;38941;53.254;6.600;2023-07-31T07:01:41;13.32;;;3.22;;
51836;SDS011;38941;53.254;6.600;2023-07-31T07:03:41;19.48;;;3.85;;
51836;SDS011;38941;53.254;6.600;2023-07-31T07:05:42;18.20;;;3.35;;
51836;SDS011;38941;53.254;6.600;2023-07-31T07:07:43;16.00;;;3.80;;
51836;SDS011;38941;53.254;6.600;2023-07-31T07:09:44;18.05;;;4.60;;
51836;SDS011;38941;53.254;6.600;2023-07-31T07:11:44;21.95;;;5.00;;
51836;SDS011;38941;53.254;6.600;2023-07-31T07:13:45;12.02;;;3.30;;
51836;SDS011;38941;53.254;6.600;2023-07-31T07:15:49;9.95;;;3.33;;
51836;SDS011;38941;53.254;6.600;2023-07-31T07:17:49;16.05;;;3.30;;
51836;SDS011;38941;53.254;6.600;2023-07-31T07:19:50;15.95;;;3.53;;
51836;SDS011;38941;53.254;6.600;2023-07-31T07:21:51;20.08;;;3.80;;
51836;SDS011;38941;53.254;6.600;2023-07-31T07:23:51;17.20;;;4.07;;
51836;SDS011;38941;53.254;6.600;2023-07-31T07:25:52;16.50;;;4.03;;
51836;SDS011;38941;53.254;6.600;2023-07-31T07:27:53;13.43;;;3.47;;
51836;SDS011;38941;53.254;6.600;2023-07-31T07:29:53;16.50;;;4.18;;
51836;SDS011;38941;53.254;6.600;2023-07-31T07:31:54;9.88;;;3.28;;
51836;SDS011;38941;53.254;6.600;2023-07-31T07:33:55;13.07;;;3.10;;
51836;SDS011;38941;53.254;6.600;2023-07-31T07:36:00;14.57;;;3.00;;
51836;SDS011;38941;53.254;6.600;2023-07-31T07:38:02;11.73;;;3.47;;
51836;SDS011;38941;53.254;6.600;2023-07-31T07:40:03;13.93;;;3.13;;
51836;SDS011;38941;53.254;6.600;2023-07-31T07:42:05;18.58;;;3.92;;
51836;SDS011;38941;53.254;6.600;2023-07-31T07:44:07;13.98;;;3.80;;
51836;SDS011;38941;53.254;6.600;2023-07-31T07:46:08;14.45;;;2.97;;
51836;SDS011;38941;53.254;6.600;2023-07-31T07:48:09;11.57;;;3.33;;
51836;SDS011;38941;53.254;6.600;2023-07-31T07:50:10;10.48;;;2.53;;
51836;SDS011;38941;53.254;6.600;2023-07-31T07:52:10;11.70;;;2.95;;
51836;SDS011;38941;53.254;6.600;2023-07-31T07:54:11;11.98;;;3.72;;
51836;SDS011;38941;53.254;6.600;2023-07-31T07:56:12;13.65;;;3.22;;
51836;SDS011;38941;53.254;6.600;2023-07-31T07:58:12;8.27;;;2.92;;
51836;SDS011;38941;53.254;6.600;2023-07-31T08:00:13;12.30;;;3.17;;
51836;SDS011;38941;53.254;6.600;2023-07-31T08:02:14;11.25;;;2.80;;
51836;SDS011;38941;53.254;6.600;2023-07-31T08:04:15;11.95;;;3.38;;
51836;SDS011;38941;53.254;6.600;2023-07-31T08:06:15;3.75;;;1.60;;
51836;SDS011;38941;53.254;6.600;2023-07-31T08:08:17;5.97;;;1.33;;
51836;SDS011;38941;53.254;6.600;2023-07-31T08:10:19;1.52;;;0.82;;
51836;SDS011;38941;53.254;6.600;2023-07-31T08:12:20;2.85;;;0.90;;
51836;SDS011;38941;53.254;6.600;2023-07-31T08:14:20;1.60;;;0.70;;
51836;SDS011;38941;53.254;6.600;2023-07-31T08:16:21;1.00;;;0.60;;
51836;SDS011;38941;53.254;6.600;2023-07-31T08:18:22;0.90;;;0.50;;
51836;SDS011;38941;53.254;6.600;2023-07-31T08:20:23;2.38;;;0.95;;
51836;SDS011;38941;53.254;6.600;2023-07-31T08:22:23;3.38;;;0.60;;
51836;SDS011;38941;53.254;6.600;2023-07-31T08:24:25;3.35;;;1.27;;
51836;SDS011;38941;53.254;6.600;2023-07-31T08:26:25;1.50;;;0.77;;
51836;SDS011;38941;53.254;6.600;2023-07-31T08:28:26;2.50;;;0.65;;
51836;SDS011;38941;53.254;6.600;2023-07-31T08:30:27;1.42;;;0.70;;
51836;SDS011;38941;53.254;6.600;2023-07-31T08:32:28;1.92;;;0.65;;
51836;SDS011;38941;53.254;6.600;2023-07-31T08:34:28;1.40;;;0.50;;
51836;SDS011;38941;53.254;6.600;2023-07-31T08:36:29;0.95;;;0.60;;
51836;SDS011;38941;53.254;6.600;2023-07-31T08:38:30;1.40;;;0.60;;
51836;SDS011;38941;53.254;6.600;2023-07-31T08:40:31;2.30;;;0.63;;
51836;SDS011;38941;53.254;6.600;2023-07-31T08:42:32;0.80;;;0.50;;
51836;SDS011;38941;53.254;6.600;2023-07-31T08:44:32;2.35;;;0.70;;
51836;SDS011;38941;53.254;6.600;2023-07-31T08:46:34;1.10;;;0.60;;
51836;SDS011;38941;53.254;6.600;2023-07-31T08:48:36;0.57;;;0.50;;
51836;SDS011;38941;53.254;6.600;2023-07-31T08:50:38;2.40;;;0.60;;
51836;SDS011;38941;53.254;6.600;2023-07-31T08:52:39;0.95;;;0.63;;
51836;SDS011;38941;53.254;6.600;2023-07-31T08:54:40;0.95;;;0.47;;
51836;SDS011;38941;53.254;6.600;2023-07-31T08:56:41;1.00;;;0.68;;
51836;SDS011;38941;53.254;6.600;2023-07-31T08:58:43;1.40;;;0.60;;
51836;SDS011;38941;53.254;6.600;2023-07-31T09:00:46;0.82;;;0.50;;
51836;SDS011;38941;53.254;6.600;2023-07-31T09:04:56;2.58;;;1.13;;
51836;SDS011;38941;53.254;6.600;2023-07-31T09:07:02;0.52;;;0.40;;
51836;SDS011;38941;53.254;6.600;2023-07-31T09:09:04;2.58;;;0.40;;
51836;SDS011;38941;53.254;6.600;2023-07-31T09:11:05;0.77;;;0.40;;
51836;SDS011;38941;53.254;6.600;2023-07-31T09:13:05;0.98;;;0.60;;
51836;SDS011;38941;53.254;6.600;2023-07-31T09:15:06;0.80;;;0.40;;
51836;SDS011;38941;53.254;6.600;2023-07-31T09:17:08;1.80;;;0.60;;
51836;SDS011;38941;53.254;6.600;2023-07-31T09:19:09;2.50;;;0.43;;
51836;SDS011;38941;53.254;6.600;2023-07-31T09:21:10;0.68;;;0.40;;
51836;SDS011;38941;53.254;6.600;2023-07-31T09:23:11;0.40;;;0.30;;
51836;SDS011;38941;53.254;6.600;2023-07-31T09:25:20;0.55;;;0.40;;
51836;SDS011;38941;53.254;6.600;2023-07-31T09:27:27;0.35;;;0.30;;
51836;SDS011;38941;53.254;6.600;2023-07-31T09:29:28;3.28;;;0.47;;
51836;SDS011;38941;53.254;6.600;2023-07-31T09:33:53;0.52;;;0.35;;
51836;SDS011;38941;53.254;6.600;2023-07-31T09:35:57;0.52;;;0.38;;
51836;SDS011;38941;53.254;6.600;2023-07-31T09:38:00;1.00;;;0.30;;
51836;SDS011;38941;53.254;6.600;2023-07-31T09:40:03;1.20;;;0.38;;
51836;SDS011;38941;53.254;6.600;2023-07-31T09:42:05;0.80;;;0.57;;
51836;SDS011;38941;53.254;6.600;2023-07-31T09:44:06;0.40;;;0.30;;
51836;SDS011;38941;53.254;6.600;2023-07-31T09:46:12;0.63;;;0.32;;
51836;SDS011;38941;53.254;6.600;2023-07-31T09:48:17;0.40;;;0.40;;
51836;SDS011;38941;53.254;6.600;2023-07-31T09:50:19;1.00;;;0.40;;
51836;SDS011;38941;53.254;6.600;2023-07-31T09:52:21;0.20;;;0.20;;
51836;SDS011;38941;53.254;6.600;2023-07-31T09:54:22;0.80;;;0.38;;
51836;SDS011;38941;53.254;6.600;2023-07-31T09:56:23;0.45;;;0.30;;
51836;SDS011;38941;53.254;6.600;2023-07-31T09:58:24;0.40;;;0.32;;
51836;SDS011;38941;53.254;6.600;2023-07-31T10:00:28;0.30;;;0.20;;
51836;SDS011;38941;53.254;6.600;2023-07-31T10:02:31;0.40;;;0.30;;
51836;SDS011;38941;53.254;6.600;2023-07-31T10:04:32;0.22;;;0.22;;
51836;SDS011;38941;53.254;6.600;2023-07-31T10:06:34;0.40;;;0.20;;
51836;SDS011;38941;53.254;6.600;2023-07-31T10:08:35;1.45;;;0.20;;
51836;SDS011;38941;53.254;6.600;2023-07-31T10:10:37;0.17;;;0.17;;
51836;SDS011;38941;53.254;6.600;2023-07-31T10:12:41;1.08;;;0.10;;
51836;SDS011;38941;53.254;6.600;2023-07-31T10:14:43;0.10;;;0.08;;
51836;SDS011;38941;53.254;6.600;2023-07-31T10:16:45;0.20;;;0.10;;
51836;SDS011;38941;53.254;6.600;2023-07-31T10:18:46;0.40;;;0.10;;
51836;SDS011;38941;53.254;6.600;2023-07-31T10:20:47;0.20;;;0.10;;
51836;SDS011;38941;53.254;6.600;2023-07-31T10:22:48;0.30;;;0.20;;
51836;SDS011;38941;53.254;6.600;2023-07-31T10:24:50;0.00;;;0.00;;
51836;SDS011;38941;53.254;6.600;2023-07-31T10:26:54;1.20;;;0.10;;
51836;SDS011;38941;53.254;6.600;2023-07-31T10:29:00;0.20;;;0.10;;
51836;SDS011;38941;53.254;6.600;2023-07-31T10:31:01;0.10;;;0.08;;
51836;SDS011;38941;53.254;6.600;2023-07-31T10:33:03;0.82;;;0.10;;
51836;SDS011;38941;53.254;6.600;2023-07-31T10:35:06;0.10;;;0.10;;
51836;SDS011;38941;53.254;6.600;2023-07-31T10:37:25;0.30;;;0.10;;
51836;SDS011;38941;53.254;6.600;2023-07-31T10:39:35;0.25;;;0.10;;
51836;SDS011;38941;53.254;6.600;2023-07-31T10:41:37;0.30;;;0.13;;
51836;SDS011;38941;53.254;6.600;2023-07-31T10:43:38;0.30;;;0.30;;
51836;SDS011;38941;53.254;6.600;2023-07-31T10:45:39;0.98;;;0.10;;
51836;SDS011;38941;53.254;6.600;2023-07-31T10:47:43;0.57;;;0.20;;
51836;SDS011;38941;53.254;6.600;2023-07-31T10:49:45;0.50;;;0.13;;
51836;SDS011;38941;53.254;6.600;2023-07-31T10:51:47;1.20;;;0.22;;
51836;SDS011;38941;53.254;6.600;2023-07-31T10:53:48;2.20;;;0.82;;
51836;SDS011;38941;53.254;6.600;2023-07-31T10:55:49;0.65;;;0.28;;
51836;SDS011;38941;53.254;6.600;2023-07-31T10:57:52;0.35;;;0.20;;
51836;SDS011;38941;53.254;6.600;2023-07-31T10:59:53;2.17;;;0.35;;
51836;SDS011;38941;53.254;6.600;2023-07-31T11:02:25;0.68;;;0.30;;
51836;SDS011;38941;53.254;6.600;2023-07-31T11:04:27;0.30;;;0.30;;
51836;SDS011;38941;53.254;6.600;2023-07-31T11:06:29;0.40;;;0.20;;
51836;SDS011;38941;53.254;6.600;2023-07-31T11:08:31;2.17;;;0.40;;
51836;SDS011;38941;53.254;6.600;2023-07-31T11:10:32;0.20;;;0.20;;
51836;SDS011;38941;53.254;6.600;2023-07-31T11:12:33;1.05;;;0.40;;
51836;SDS011;38941;53.254;6.600;2023-07-31T11:14:34;0.52;;;0.30;;
51836;SDS011;38941;53.254;6.600;2023-07-31T11:16:34;0.57;;;0.32;;
51836;SDS011;38941;53.254;6.600;2023-07-31T11:18:35;0.40;;;0.35;;
51836;SDS011;38941;53.254;6.600;2023-07-31T11:20:38;2.00;;;0.30;;
51836;SDS011;38941;53.254;6.600;2023-07-31T11:22:39;0.30;;;0.30;;
51836;SDS011;38941;53.254;6.600;2023-07-31T11:24:40;0.85;;;0.28;;
51836;SDS011;38941;53.254;6.600;2023-07-31T11:26:49;0.47;;;0.20;;
51836;SDS011;38941;53.254;6.600;2023-07-31T11:28:53;0.10;;;0.10;;
51836;SDS011;38941;53.254;6.600;2023-07-31T11:30:54;0.40;;;0.15;;
51836;SDS011;38941;53.254;6.600;2023-07-31T11:32:56;1.40;;;0.30;;
51836;SDS011;38941;53.254;6.600;2023-07-31T11:34:56;0.30;;;0.20;;
51836;SDS011;38941;53.254;6.600;2023-07-31T11:36:57;0.20;;;0.20;;
51836;SDS011;38941;53.254;6.600;2023-07-31T11:39:05;0.40;;;0.30;;
51836;SDS011;38941;53.254;6.600;2023-07-31T11:41:09;1.42;;;0.30;;
51836;SDS011;38941;53.254;6.600;2023-07-31T11:43:10;1.40;;;0.30;;
51836;SDS011;38941;53.254;6.600;2023-07-31T11:45:17;2.05;;;0.30;;
51836;SDS011;38941;53.254;6.600;2023-07-31T11:47:17;0.30;;;0.30;;
51836;SDS011;38941;53.254;6.600;2023-07-31T11:49:18;1.08;;;0.40;;
51836;SDS011;38941;53.254;6.600;2023-07-31T11:51:19;1.55;;;0.30;;
51836;SDS011;38941;53.254;6.600;2023-07-31T11:53:28;0.20;;;0.20;;
51836;SDS011;38941;53.254;6.600;2023-07-31T11:55:36;0.40;;;0.30;;
51836;SDS011;38941;53.254;6.600;2023-07-31T11:57:40;0.30;;;0.20;;
51836;SDS011;38941;53.254;6.600;2023-07-31T11:59:43;3.30;;;1.10;;
51836;SDS011;38941;53.254;6.600;2023-07-31T12:01:44;0.93;;;0.40;;
51836;SDS011;38941;53.254;6.600;2023-07-31T12:03:45;0.20;;;0.20;;
51836;SDS011;38941;53.254;6.600;2023-07-31T12:05:47;4.28;;;0.50;;
51836;SDS011;38941;53.254;6.600;2023-07-31T12:07:52;0.75;;;0.45;;
51836;SDS011;38941;53.254;6.600;2023-07-31T12:09:54;1.90;;;0.40;;
51836;SDS011;38941;53.254;6.600;2023-07-31T12:11:55;2.05;;;0.57;;
51836;SDS011;38941;53.254;6.600;2023-07-31T12:13:56;2.47;;;0.82;;
51836;SDS011;38941;53.254;6.600;2023-07-31T12:15:57;2.78;;;0.60;;
51836;SDS011;38941;53.254;6.600;2023-07-31T12:18:00;1.35;;;0.50;;
51836;SDS011;38941;53.254;6.600;2023-07-31T12:20:04;1.50;;;0.70;;
51836;SDS011;38941;53.254;6.600;2023-07-31T12:22:13;0.85;;;0.60;;